createdAt,value
2024-02-01T00:00:56.397Z,93.31
2024-02-01T00:01:56.355Z,89.73
2024-02-01T00:02:56.453Z,93.07
2024-02-01T00:03:56.398Z,89.91
2024-02-01T00:04:56.442Z,92.26
2024-02-01T00:05:56.517Z,90.40
2024-02-01T00:06:56.569Z,90.59
2024-02-01T00:07:56.456Z,87.80
2024-02-01T00:08:56.524Z,90.19
2024-02-01T00:09:56.501Z,87.65
2024-02-01T00:10:56.517Z,89.98
2024-02-01T00:11:56.566Z,87.34
2024-02-01T00:12:56.549Z,87.21
2024-02-01T00:13:56.569Z,87.20
2024-02-01T00:14:56.640Z,88.06
2024-02-01T00:15:56.627Z,86.30
2024-02-01T00:16:56.637Z,87.43
2024-02-01T00:17:56.738Z,86.02
2024-02-01T00:18:56.782Z,86.00
2024-02-01T00:19:56.836Z,86.25
2024-02-01T00:20:56.786Z,84.18
2024-02-01T00:21:56.736Z,85.49
2024-02-01T00:22:56.774Z,85.55
2024-02-01T00:23:56.803Z,83.46
2024-02-01T00:24:56.829Z,86.03
2024-02-01T00:25:56.842Z,84.17
2024-02-01T00:26:56.898Z,85.72
2024-02-01T00:27:56.884Z,83.64
2024-02-01T00:28:56.897Z,83.10
2024-02-01T00:29:56.980Z,84.30
2024-02-01T00:30:56.979Z,85.70
2024-02-01T00:31:56.964Z,84.02
2024-02-01T00:32:57.208Z,81.77
2024-02-01T00:33:57.132Z,82.82
2024-02-01T00:34:57.107Z,82.61
2024-02-01T00:35:57.093Z,83.44
2024-02-01T00:36:57.107Z,83.55
2024-02-01T00:37:57.107Z,82.53
2024-02-01T00:38:57.171Z,83.05
2024-02-01T00:39:57.189Z,83.83
2024-02-01T00:40:57.210Z,82.36
2024-02-01T00:41:57.276Z,83.52
2024-02-01T00:42:57.272Z,84.09
2024-02-01T00:43:57.271Z,82.78
2024-02-01T00:44:57.335Z,83.07
2024-02-01T00:45:57.349Z,82.69
2024-02-01T00:46:57.397Z,81.35
2024-02-01T00:47:57.492Z,80.79
2024-02-01T00:48:57.515Z,80.86
2024-02-01T00:49:57.429Z,81.98
2024-02-01T00:50:57.537Z,80.51
2024-02-01T00:51:57.508Z,81.27
2024-02-01T00:52:57.527Z,79.36
2024-02-01T00:53:57.623Z,80.28
2024-02-01T00:54:57.601Z,79.13
2024-02-01T00:55:57.641Z,79.16
2024-02-01T00:56:57.685Z,79.42
2024-02-01T00:57:57.653Z,79.88
2024-02-01T00:58:57.680Z,78.30
2024-02-01T00:59:57.848Z,78.71
2024-02-01T01:00:57.871Z,77.30
2024-02-01T01:01:57.815Z,77.64
2024-02-01T01:02:57.820Z,75.80
2024-02-01T01:03:57.865Z,77.06
2024-02-01T01:04:57.889Z,76.46
2024-02-01T01:05:57.881Z,76.06
2024-02-01T01:06:57.861Z,76.83
2024-02-01T01:07:57.951Z,77.64
2024-02-01T01:08:57.993Z,76.98
2024-02-01T01:09:57.955Z,80.32
2024-02-01T01:10:57.974Z,80.21
2024-02-01T01:11:58.019Z,80.13
2024-02-01T01:12:58.017Z,77.97
2024-02-01T01:13:58.045Z,80.08
2024-02-01T01:14:58.093Z,81.73
2024-02-01T01:15:58.119Z,81.61
2024-02-01T01:16:58.119Z,81.68
2024-02-01T01:17:58.209Z,79.79
2024-02-01T01:18:58.265Z,79.30
2024-02-01T01:19:58.249Z,80.23
2024-02-01T01:20:58.281Z,78.88
2024-02-01T01:21:58.255Z,80.58
2024-02-01T01:22:58.276Z,80.85
2024-02-01T01:23:58.336Z,81.43
2024-02-01T01:24:58.320Z,80.86
2024-02-01T01:25:58.360Z,83.32
2024-02-01T01:26:58.396Z,81.96
2024-02-01T01:27:58.400Z,79.64
2024-02-01T01:28:58.426Z,83.01
2024-02-01T01:29:58.496Z,83.65
2024-02-01T01:30:58.494Z,83.48
2024-02-01T01:31:58.531Z,83.32
2024-02-01T01:32:58.709Z,83.72
2024-02-01T01:33:58.859Z,85.76
2024-02-01T01:34:58.714Z,83.63
2024-02-01T01:35:58.639Z,85.11
2024-02-01T01:36:58.644Z,86.06
2024-02-01T01:37:58.675Z,84.55
2024-02-01T01:38:58.733Z,85.93
2024-02-01T01:39:58.714Z,86.46
2024-02-01T01:40:58.752Z,85.14
2024-02-01T01:41:58.789Z,85.74
2024-02-01T01:42:58.808Z,84.86
2024-02-01T01:43:58.840Z,85.08
2024-02-01T01:44:58.865Z,84.44
2024-02-01T01:45:58.889Z,86.75
2024-02-01T01:46:58.909Z,85.41
2024-02-01T01:47:59.070Z,83.99
2024-02-01T01:48:59.052Z,86.84
2024-02-01T01:49:59.046Z,83.18
2024-02-01T01:50:59.091Z,84.86
2024-02-01T01:51:59.053Z,82.82
2024-02-01T01:52:59.110Z,81.79
2024-02-01T01:53:59.117Z,81.90
2024-02-01T01:54:59.144Z,79.24
2024-02-01T01:55:59.163Z,79.01
2024-02-01T01:56:59.217Z,77.79
2024-02-01T01:57:59.211Z,77.01
2024-02-01T01:58:59.235Z,77.44
2024-02-01T01:59:59.435Z,77.53
2024-02-01T02:00:59.465Z,80.33
2024-02-01T02:01:59.353Z,78.31
2024-02-01T02:03:00.577Z,77.65
2024-02-01T02:03:59.497Z,76.32
2024-02-01T02:04:59.431Z,78.52
2024-02-01T02:05:59.542Z,77.55
2024-02-01T02:06:59.573Z,76.99
2024-02-01T02:07:59.518Z,79.20
2024-02-01T02:08:59.610Z,78.86
2024-02-01T02:09:59.581Z,77.90
2024-02-01T02:10:59.614Z,76.75
2024-02-01T02:11:59.695Z,77.90
2024-02-01T02:12:59.673Z,75.77
2024-02-01T02:13:59.715Z,78.35
2024-02-01T02:14:59.758Z,78.55
2024-02-01T02:15:59.767Z,77.97
2024-02-01T02:16:59.910Z,77.16
2024-02-01T02:17:59.993Z,77.71
2024-02-01T02:18:59.941Z,75.48
2024-02-01T02:19:59.911Z,74.55
2024-02-01T02:20:59.888Z,72.56
2024-02-01T02:21:59.900Z,72.65
2024-02-01T02:22:59.917Z,72.57
2024-02-01T02:23:59.996Z,71.61
2024-02-01T02:24:59.964Z,71.24
2024-02-01T02:25:59.990Z,71.48
2024-02-01T02:27:00.042Z,72.78
2024-02-01T02:28:00.069Z,68.16
2024-02-01T02:29:00.063Z,70.21
2024-02-01T02:30:00.204Z,68.32
2024-02-01T02:31:00.124Z,68.32
2024-02-01T02:32:00.153Z,67.30
2024-02-01T02:33:00.250Z,67.46
2024-02-01T02:34:00.348Z,63.17
2024-02-01T02:35:00.227Z,62.89
2024-02-01T02:36:00.259Z,64.96
2024-02-01T02:37:00.273Z,65.68
2024-02-01T02:38:00.316Z,65.50
2024-02-01T02:39:00.396Z,62.35
2024-02-01T02:40:00.375Z,64.56
2024-02-01T02:41:00.387Z,63.10
2024-02-01T02:42:00.427Z,63.27
2024-02-01T02:43:00.424Z,61.72
2024-02-01T02:44:00.472Z,63.68
2024-02-01T02:45:00.523Z,62.48
2024-02-01T02:46:00.560Z,65.03
2024-02-01T02:47:00.514Z,65.36
2024-02-01T02:48:00.712Z,63.19
2024-02-01T02:49:00.883Z,62.95
2024-02-01T02:50:00.601Z,62.38
2024-02-01T02:51:00.666Z,61.98
2024-02-01T02:52:00.680Z,62.61
2024-02-01T02:53:00.691Z,63.75
2024-02-01T02:54:00.812Z,60.99
2024-02-01T02:55:00.754Z,62.31
2024-02-01T02:56:00.786Z,63.22
2024-02-01T02:57:00.851Z,61.27
2024-02-01T02:58:00.818Z,61.30
2024-02-01T02:59:00.883Z,60.23
2024-02-01T03:00:00.901Z,60.59
2024-02-01T03:01:00.974Z,60.69
2024-02-01T03:02:00.925Z,59.89
2024-02-01T03:03:01.012Z,57.91
2024-02-01T03:04:01.000Z,59.82
2024-02-01T03:05:01.018Z,59.01
2024-02-01T03:06:01.129Z,56.47
2024-02-01T03:07:01.066Z,57.65
2024-02-01T03:08:01.091Z,56.71
2024-02-01T03:09:01.123Z,56.18
2024-02-01T03:10:01.150Z,55.71
2024-02-01T03:11:01.151Z,55.94
2024-02-01T03:12:01.187Z,57.90
2024-02-01T03:13:01.181Z,57.92
2024-02-01T03:14:01.217Z,57.96
2024-02-01T03:15:01.330Z,57.04
2024-02-01T03:16:01.294Z,59.52
2024-02-01T03:17:01.306Z,56.81
2024-02-01T03:18:01.452Z,59.17
2024-02-01T03:19:01.542Z,60.56
2024-02-01T03:20:01.402Z,62.97
2024-02-01T03:21:01.440Z,62.31
2024-02-01T03:22:01.454Z,63.14
2024-02-01T03:23:01.510Z,61.42
2024-02-01T03:24:01.554Z,62.08
2024-02-01T03:25:01.889Z,64.86
2024-02-01T03:26:01.586Z,63.64
2024-02-01T03:27:01.654Z,64.59
2024-02-01T03:28:01.706Z,66.97
2024-02-01T03:29:01.666Z,65.98
2024-02-01T03:30:01.975Z,68.59
2024-02-01T03:31:01.742Z,66.69
2024-02-01T03:32:01.832Z,67.94
2024-02-01T03:33:01.894Z,66.71
2024-02-01T03:34:02.023Z,66.51
2024-02-01T03:35:01.933Z,68.37
2024-02-01T03:36:01.905Z,65.47
2024-02-01T03:37:01.918Z,68.84
2024-02-01T03:38:01.969Z,68.64
2024-02-01T03:39:02.002Z,68.35
2024-02-01T03:40:02.004Z,70.75
2024-02-01T03:41:02.022Z,70.28
2024-02-01T03:42:02.415Z,68.40
2024-02-01T03:43:02.090Z,69.67
2024-02-01T03:44:02.122Z,69.13
2024-02-01T03:45:02.222Z,68.12
2024-02-01T03:46:02.170Z,68.25
2024-02-01T03:47:02.219Z,69.13
2024-02-01T03:48:02.374Z,69.83
2024-02-01T03:49:02.356Z,69.85
2024-02-01T03:50:02.421Z,69.29
2024-02-01T03:51:02.401Z,70.79
2024-02-01T03:52:02.387Z,67.34
2024-02-01T03:53:02.400Z,69.08
2024-02-01T03:54:02.495Z,68.30
2024-02-01T03:55:02.481Z,67.89
2024-02-01T03:56:02.503Z,67.91
2024-02-01T03:57:02.577Z,68.57
2024-02-01T03:58:02.614Z,68.55
2024-02-01T03:59:02.600Z,69.08
2024-02-01T04:00:02.652Z,68.68
2024-02-01T04:01:02.783Z,66.17
2024-02-01T04:02:02.693Z,68.20
2024-02-01T04:03:02.758Z,70.62
2024-02-01T04:04:02.816Z,68.68
2024-02-01T04:05:02.790Z,69.67
2024-02-01T04:06:02.890Z,69.74
2024-02-01T04:07:03.038Z,67.77
2024-02-01T04:08:02.884Z,69.07
2024-02-01T04:09:02.936Z,69.39
2024-02-01T04:10:02.946Z,69.36
2024-02-01T04:11:02.979Z,69.16
2024-02-01T04:12:03.036Z,68.53
2024-02-01T04:13:03.030Z,69.28
2024-02-01T04:14:03.047Z,69.05
2024-02-01T04:15:03.111Z,67.05
2024-02-01T04:16:03.139Z,68.03
2024-02-01T04:17:03.145Z,69.25
2024-02-01T04:18:03.321Z,68.44
2024-02-01T04:19:04.510Z,68.04
2024-02-01T04:20:03.299Z,69.79
2024-02-01T04:21:03.346Z,69.55
2024-02-01T04:22:03.332Z,67.51
2024-02-01T04:23:03.464Z,67.44
2024-02-01T04:24:03.397Z,68.65
2024-02-01T04:25:03.405Z,68.79
2024-02-01T04:26:03.443Z,68.39
2024-02-01T04:27:10.828Z,50.00
2024-02-01T04:28:11.073Z,50.00
2024-02-01T04:29:10.771Z,50.00
2024-02-01T04:30:10.826Z,50.00
2024-02-01T04:31:18.022Z,50.00
2024-02-01T04:32:18.003Z,50.00
2024-02-01T04:33:18.079Z,50.00
2024-02-01T04:34:19.069Z,50.00
2024-02-01T04:35:18.014Z,50.00
2024-02-01T04:36:18.042Z,52.92
2024-02-01T04:37:17.998Z,50.76
2024-02-01T04:38:18.060Z,50.82
2024-02-01T04:39:18.126Z,50.14
2024-02-01T04:40:18.048Z,51.16
2024-02-01T04:41:18.023Z,50.00
2024-02-01T04:42:18.072Z,51.48
2024-02-01T04:43:18.018Z,53.14
2024-02-01T04:44:18.032Z,53.23
2024-02-01T04:45:18.125Z,51.99
2024-02-01T04:46:18.026Z,51.99
2024-02-01T04:47:18.018Z,50.88
2024-02-01T04:48:18.140Z,51.35
2024-02-01T04:49:18.244Z,51.98
2024-02-01T04:50:18.036Z,52.76
2024-02-01T04:51:18.030Z,54.01
2024-02-01T04:52:18.027Z,53.94
2024-02-01T04:53:18.030Z,53.04
2024-02-01T04:54:18.104Z,57.11
2024-02-01T04:55:18.031Z,56.77
2024-02-01T04:56:18.035Z,57.90
2024-02-01T04:57:18.071Z,55.46
2024-02-01T04:58:18.037Z,56.56
2024-02-01T04:59:18.034Z,56.96
2024-02-01T05:00:18.132Z,56.38
2024-02-01T05:01:18.155Z,56.55
2024-02-01T05:02:18.093Z,56.21
2024-02-01T05:03:18.393Z,58.33
2024-02-01T05:04:18.039Z,58.98
2024-02-01T05:05:18.081Z,57.75
2024-02-01T05:06:18.100Z,57.71
2024-02-01T05:07:18.084Z,56.92
2024-02-01T05:08:18.030Z,58.64
2024-02-01T05:09:18.066Z,57.63
2024-02-01T05:10:18.066Z,59.17
2024-02-01T05:11:18.047Z,57.92
2024-02-01T05:12:18.099Z,58.31
2024-02-01T05:13:18.071Z,58.93
2024-02-01T05:14:18.049Z,60.02
2024-02-01T05:15:18.182Z,60.69
2024-02-01T05:16:18.152Z,58.73
2024-02-01T05:17:18.155Z,61.59
2024-02-01T05:18:18.287Z,59.27
2024-02-01T05:19:18.472Z,59.85
2024-02-01T05:20:18.269Z,60.39
2024-02-01T05:21:18.437Z,59.49
2024-02-01T05:22:18.321Z,60.50
2024-02-01T05:23:18.338Z,61.93
2024-02-01T05:24:18.451Z,63.67
2024-02-01T05:25:18.419Z,61.98
2024-02-01T05:26:18.482Z,61.37
2024-02-01T05:27:18.551Z,61.16
2024-02-01T05:28:18.514Z,59.70
2024-02-01T05:29:18.540Z,61.50
2024-02-01T05:30:21.083Z,62.77
2024-02-01T05:31:18.567Z,61.36
2024-02-01T05:32:18.721Z,62.76
2024-02-01T05:33:18.628Z,63.01
2024-02-01T05:34:18.762Z,63.75
2024-02-01T05:35:18.590Z,63.75
2024-02-01T05:36:18.634Z,62.57
2024-02-01T05:37:18.582Z,63.63
2024-02-01T05:38:18.599Z,61.93
2024-02-01T05:39:18.631Z,63.46
2024-02-01T05:40:18.591Z,61.99
2024-02-01T05:41:18.600Z,63.30
2024-02-01T05:42:18.662Z,62.05
2024-02-01T05:43:18.592Z,61.44
2024-02-01T05:44:18.606Z,63.21
2024-02-01T05:45:18.640Z,62.68
2024-02-01T05:46:18.599Z,62.47
2024-02-01T05:47:18.612Z,61.70
2024-02-01T05:48:18.711Z,57.70
2024-02-01T05:49:18.707Z,58.38
2024-02-01T05:50:18.612Z,56.52
2024-02-01T05:51:18.638Z,57.22
2024-02-01T05:52:18.661Z,56.66
2024-02-01T05:53:18.603Z,57.43
2024-02-01T05:54:18.677Z,56.18
2024-02-01T05:55:18.604Z,56.37
2024-02-01T05:56:18.628Z,58.23
2024-02-01T05:57:18.745Z,57.24
2024-02-01T05:58:18.646Z,60.49
2024-02-01T05:59:18.598Z,60.70
2024-02-01T06:00:18.801Z,61.70
2024-02-01T06:01:18.945Z,61.69
2024-02-01T06:02:18.617Z,62.60
2024-02-01T06:03:18.707Z,63.60
2024-02-01T06:04:18.642Z,62.18
2024-02-01T06:05:18.623Z,63.86
2024-02-01T06:06:18.806Z,66.21
2024-02-01T06:07:18.692Z,67.21
2024-02-01T06:08:18.632Z,67.17
2024-02-01T06:09:18.754Z,67.09
2024-02-01T06:10:18.638Z,70.09
2024-02-01T06:11:18.627Z,69.01
2024-02-01T06:12:18.795Z,69.45
2024-02-01T06:13:18.647Z,72.16
2024-02-01T06:14:18.683Z,72.55
2024-02-01T06:15:18.775Z,73.73
2024-02-01T06:16:18.643Z,73.63
2024-02-01T06:17:18.671Z,74.56
2024-02-01T06:18:18.789Z,75.54
2024-02-01T06:19:18.773Z,76.78
2024-02-01T06:20:18.655Z,74.25
2024-02-01T06:21:18.762Z,74.91
2024-02-01T06:22:18.638Z,77.30
2024-02-01T06:23:18.638Z,75.35
2024-02-01T06:24:18.810Z,75.72
2024-02-01T06:25:18.648Z,77.94
2024-02-01T06:26:18.656Z,76.78
2024-02-01T06:27:18.768Z,78.10
2024-02-01T06:28:18.658Z,76.20
2024-02-01T06:29:18.664Z,71.38
2024-02-01T06:30:18.752Z,61.60
2024-02-01T06:31:18.660Z,57.41
2024-02-01T06:32:18.668Z,53.00
2024-02-01T06:33:18.742Z,53.52
2024-02-01T06:34:18.702Z,54.42
2024-02-01T06:35:19.584Z,54.63
2024-02-01T06:36:19.186Z,56.32
2024-02-01T06:37:18.693Z,56.34
2024-02-01T06:38:18.659Z,53.94
2024-02-01T06:39:19.038Z,57.38
2024-02-01T06:40:18.757Z,58.43
2024-02-01T06:41:18.761Z,53.60
2024-02-01T06:42:18.854Z,52.38
2024-02-01T06:43:18.951Z,60.37
2024-02-01T06:44:18.668Z,65.28
2024-02-01T06:45:18.808Z,73.09
2024-02-01T06:46:18.683Z,78.39
2024-02-01T06:47:18.687Z,85.48
2024-02-01T06:48:18.773Z,89.31
2024-02-01T06:49:18.766Z,92.64
2024-02-01T06:50:18.729Z,95.34
2024-02-01T06:51:19.293Z,101.47
2024-02-01T06:52:18.833Z,103.25
2024-02-01T06:53:18.704Z,105.01
2024-02-01T06:54:18.757Z,105.38
2024-02-01T06:55:18.692Z,109.20
2024-02-01T06:56:18.715Z,111.78
2024-02-01T06:57:18.736Z,114.38
2024-02-01T06:58:18.696Z,114.12
2024-02-01T06:59:18.763Z,115.56
2024-02-01T07:00:18.740Z,116.94
2024-02-01T07:01:18.712Z,120.04
2024-02-01T07:02:18.691Z,119.80
2024-02-01T07:03:18.781Z,118.99
2024-02-01T07:04:19.041Z,121.64
2024-02-01T07:05:18.747Z,120.21
2024-02-01T07:06:18.822Z,119.70
2024-02-01T07:07:19.096Z,121.31
2024-02-01T07:08:18.777Z,121.07
2024-02-01T07:09:18.980Z,120.46
2024-02-01T07:10:18.789Z,120.49
2024-02-01T07:11:18.808Z,122.00
2024-02-01T07:12:19.032Z,122.21
2024-02-01T07:13:18.867Z,121.26
2024-02-01T07:14:18.893Z,119.70
2024-02-01T07:15:18.946Z,120.55
2024-02-01T07:16:18.909Z,122.88
2024-02-01T07:17:18.984Z,122.67
2024-02-01T07:18:19.019Z,120.77
2024-02-01T07:19:19.140Z,121.71
2024-02-01T07:20:18.970Z,119.53
2024-02-01T07:21:19.057Z,123.49
2024-02-01T07:22:19.187Z,120.86
2024-02-01T07:23:19.045Z,123.50
2024-02-01T07:24:19.325Z,125.56
2024-02-01T07:25:19.105Z,124.14
2024-02-01T07:26:19.524Z,124.08
2024-02-01T07:27:19.162Z,125.00
2024-02-01T07:28:19.156Z,127.81
2024-02-01T07:29:19.171Z,124.78
2024-02-01T07:30:19.242Z,125.13
2024-02-01T07:31:19.703Z,126.45
2024-02-01T07:32:19.229Z,124.73
2024-02-01T07:33:19.354Z,121.97
2024-02-01T07:34:19.398Z,120.08
2024-02-01T07:35:19.336Z,105.05
2024-02-01T07:36:19.778Z,102.40
2024-02-01T07:37:19.355Z,94.93
2024-02-01T07:38:19.405Z,101.93
2024-02-01T07:39:19.440Z,107.21
2024-02-01T07:40:19.405Z,116.04
2024-02-01T07:41:19.689Z,122.08
2024-02-01T07:42:19.607Z,121.86
2024-02-01T07:43:19.511Z,125.03
2024-02-01T07:44:19.566Z,136.07
2024-02-01T07:45:19.769Z,137.89
2024-02-01T07:46:19.657Z,140.47
2024-02-01T07:47:19.690Z,134.55
2024-02-01T07:48:19.775Z,129.20
2024-02-01T07:49:19.791Z,118.27
2024-02-01T07:50:19.730Z,115.72
2024-02-01T07:51:19.823Z,114.97
2024-02-01T07:52:19.735Z,108.31
2024-02-01T07:53:19.725Z,110.85
2024-02-01T07:54:19.825Z,110.19
2024-02-01T07:55:19.734Z,113.69
2024-02-01T07:56:20.238Z,117.77
2024-02-01T07:57:19.865Z,118.20
2024-02-01T07:58:19.772Z,122.12
2024-02-01T07:59:19.833Z,122.05
2024-02-01T08:00:19.962Z,119.81
2024-02-01T08:01:20.090Z,119.43
2024-02-01T08:02:19.799Z,121.10
2024-02-01T08:03:19.906Z,120.17
2024-02-01T08:04:19.972Z,119.78
2024-02-01T08:05:19.995Z,116.51
2024-02-01T08:06:20.318Z,112.79
2024-02-01T08:07:20.257Z,112.31
2024-02-01T08:08:20.162Z,110.82
2024-02-01T08:09:20.269Z,112.85
2024-02-01T08:10:20.549Z,114.80
2024-02-01T08:11:23.093Z,117.03
2024-02-01T08:12:20.843Z,114.25
2024-02-01T08:13:20.284Z,112.70
2024-02-01T08:14:20.282Z,116.34
2024-02-01T08:15:20.426Z,120.68
2024-02-01T08:16:20.290Z,122.45
2024-02-01T08:17:20.310Z,117.32
2024-02-01T08:18:20.353Z,115.03
2024-02-01T08:19:29.084Z,113.89
2024-02-01T08:20:21.354Z,114.03
2024-02-01T08:21:20.363Z,114.55
2024-02-01T08:22:20.297Z,117.06
2024-02-01T08:23:20.395Z,119.44
2024-02-01T08:24:20.385Z,124.88
2024-02-01T08:25:20.301Z,127.35
2024-02-01T08:26:20.722Z,128.24
2024-02-01T08:27:20.431Z,128.84
2024-02-01T08:28:20.311Z,126.19
2024-02-01T08:29:20.304Z,126.75
2024-02-01T08:30:20.350Z,128.34
2024-02-01T08:31:20.727Z,129.45
2024-02-01T08:32:20.302Z,131.79
2024-02-01T08:33:20.528Z,138.95
2024-02-01T08:34:20.453Z,140.77
2024-02-01T08:35:20.481Z,143.71
2024-02-01T08:36:20.536Z,140.91
2024-02-01T08:37:20.541Z,139.11
2024-02-01T08:38:20.611Z,139.05
2024-02-01T08:39:20.823Z,144.61
2024-02-01T08:40:20.731Z,146.48
2024-02-01T08:41:20.839Z,148.18
2024-02-01T08:42:20.882Z,146.16
2024-02-01T08:43:20.888Z,149.17
2024-02-01T08:44:20.937Z,149.36
2024-02-01T08:45:21.014Z,152.71
2024-02-01T08:46:21.056Z,150.31
2024-02-01T08:47:21.090Z,148.50
2024-02-01T08:48:21.231Z,150.78
2024-02-01T08:49:21.227Z,152.31
2024-02-01T08:50:21.256Z,152.72
2024-02-01T08:51:21.340Z,153.69
2024-02-01T08:52:21.351Z,156.58
2024-02-01T08:53:21.356Z,161.21
2024-02-01T08:54:21.524Z,164.02
2024-02-01T08:55:21.517Z,165.08
2024-02-01T08:56:21.532Z,166.65
2024-02-01T08:57:21.570Z,163.10
2024-02-01T08:58:21.611Z,161.44
2024-02-01T08:59:21.635Z,164.71
2024-02-01T09:00:21.817Z,163.63
2024-02-01T09:01:21.791Z,163.04
2024-02-01T09:02:21.784Z,157.76
2024-02-01T09:03:21.949Z,162.75
2024-02-01T09:04:21.921Z,163.37
2024-02-01T09:05:22.075Z,167.08
2024-02-01T09:06:22.373Z,164.70
2024-02-01T09:07:22.330Z,163.64
2024-02-01T09:08:22.045Z,166.53
2024-02-01T09:09:22.161Z,168.94
2024-02-01T09:10:22.115Z,167.09
2024-02-01T09:11:22.183Z,171.36
2024-02-01T09:12:22.269Z,175.54
2024-02-01T09:13:22.287Z,169.50
2024-02-01T09:14:22.293Z,168.93
2024-02-01T09:15:22.351Z,163.37
2024-02-01T09:16:22.394Z,164.02
2024-02-01T09:17:22.415Z,171.29
2024-02-01T09:18:22.540Z,165.92
2024-02-01T09:19:22.786Z,160.76
2024-02-01T09:20:22.575Z,162.66
2024-02-01T09:21:22.763Z,165.28
2024-02-01T09:22:22.609Z,162.54
2024-02-01T09:23:22.651Z,161.64
2024-02-01T09:24:22.812Z,155.43
2024-02-01T09:25:22.717Z,158.50
2024-02-01T09:26:22.784Z,152.27
2024-02-01T09:27:22.824Z,154.90
2024-02-01T09:28:22.846Z,155.77
2024-02-01T09:29:22.869Z,153.24
2024-02-01T09:30:22.962Z,146.24
2024-02-01T09:31:23.167Z,147.50
2024-02-01T09:32:22.989Z,149.62
2024-02-01T09:33:23.158Z,144.64
2024-02-01T09:34:23.224Z,147.46
2024-02-01T09:35:23.108Z,141.19
2024-02-01T09:36:23.379Z,142.78
2024-02-01T09:37:25.005Z,144.71
2024-02-01T09:38:23.288Z,143.45
2024-02-01T09:39:23.345Z,148.04
2024-02-01T09:40:23.372Z,153.95
2024-02-01T09:41:23.775Z,149.36
2024-02-01T09:42:23.845Z,145.56
2024-02-01T09:43:23.580Z,151.27
2024-02-01T09:44:23.505Z,148.29
2024-02-01T09:45:23.572Z,153.87
2024-02-01T09:46:23.577Z,149.32
2024-02-01T09:47:23.641Z,150.11
2024-02-01T09:48:23.766Z,145.62
2024-02-01T09:49:28.382Z,149.60
2024-02-01T09:50:24.786Z,149.76
2024-02-01T09:51:23.782Z,146.25
2024-02-01T09:52:23.751Z,140.63
2024-02-01T09:53:23.717Z,146.42
2024-02-01T09:54:23.770Z,140.66
2024-02-01T09:55:23.708Z,147.82
2024-02-01T09:56:23.698Z,140.89
2024-02-01T09:57:23.778Z,140.78
2024-02-01T09:58:23.743Z,137.33
2024-02-01T09:59:23.738Z,143.36
2024-02-01T10:00:24.020Z,133.40
2024-02-01T10:01:23.734Z,142.66
2024-02-01T10:02:23.704Z,137.60
2024-02-01T10:03:23.804Z,142.86
2024-02-01T10:04:24.661Z,146.18
2024-02-01T10:05:23.734Z,141.95
2024-02-01T10:06:23.863Z,142.03
2024-02-01T10:07:23.832Z,139.44
2024-02-01T10:08:23.748Z,139.37
2024-02-01T10:09:24.628Z,137.93
2024-02-01T10:10:23.720Z,134.54
2024-02-01T10:11:23.723Z,139.26
2024-02-01T10:12:23.755Z,137.02
2024-02-01T10:13:23.715Z,135.57
2024-02-01T10:14:23.713Z,133.83
2024-02-01T10:15:23.792Z,136.82
2024-02-01T10:16:23.733Z,132.23
2024-02-01T10:17:23.731Z,134.02
2024-02-01T10:18:23.830Z,138.39
2024-02-01T10:19:23.894Z,138.82
2024-02-01T10:20:23.752Z,136.23
2024-02-01T10:21:29.763Z,137.82
2024-02-01T10:22:24.745Z,137.89
2024-02-01T10:23:23.757Z,137.93
2024-02-01T10:24:23.850Z,139.97
2024-02-01T10:25:23.849Z,141.90
2024-02-01T10:26:23.764Z,140.89
2024-02-01T10:27:25.202Z,144.81
2024-02-01T10:28:23.765Z,144.68
2024-02-01T10:29:23.740Z,145.72
2024-02-01T10:30:23.862Z,146.45
2024-02-01T10:31:23.805Z,148.18
2024-02-01T10:32:23.784Z,148.65
2024-02-01T10:33:25.582Z,153.61
2024-02-01T10:34:23.977Z,156.27
2024-02-01T10:35:23.854Z,162.50
2024-02-01T10:36:23.959Z,163.73
2024-02-01T10:37:23.796Z,159.26
2024-02-01T10:38:23.768Z,156.00
2024-02-01T10:39:23.928Z,149.32
2024-02-01T10:40:23.769Z,153.59
2024-02-01T10:41:23.776Z,141.43
2024-02-01T10:42:23.916Z,144.68
2024-02-01T10:43:23.754Z,136.79
2024-02-01T10:44:23.768Z,137.30
2024-02-01T10:45:23.853Z,132.14
2024-02-01T10:46:24.308Z,128.86
2024-02-01T10:47:23.842Z,127.92
2024-02-01T10:48:23.940Z,126.73
2024-02-01T10:49:23.955Z,129.68
2024-02-01T10:50:23.774Z,129.05
2024-02-01T10:51:23.809Z,128.96
2024-02-01T10:52:23.784Z,129.10
2024-02-01T10:53:23.775Z,128.88
2024-02-01T10:54:24.042Z,130.51
2024-02-01T10:55:23.853Z,128.89
2024-02-01T10:56:23.779Z,130.84
2024-02-01T10:57:24.295Z,134.24
2024-02-01T10:58:23.781Z,137.97
2024-02-01T10:59:23.805Z,145.42
2024-02-01T11:00:23.923Z,153.11
2024-02-01T11:01:23.885Z,154.76
2024-02-01T11:02:23.791Z,155.59
2024-02-01T11:03:23.899Z,155.48
2024-02-01T11:04:23.855Z,156.10
2024-02-01T11:05:23.812Z,162.86
2024-02-01T11:06:23.859Z,163.50
2024-02-01T11:07:23.808Z,165.46
2024-02-01T11:08:23.792Z,166.15
2024-02-01T11:09:26.405Z,166.21
2024-02-01T11:10:23.842Z,166.23
2024-02-01T11:11:23.853Z,163.51
2024-02-01T11:12:23.953Z,166.41
2024-02-01T11:13:23.798Z,167.29
2024-02-01T11:14:23.808Z,166.03
2024-02-01T11:15:25.942Z,163.86
2024-02-01T11:16:23.811Z,164.12
2024-02-01T11:17:24.306Z,165.07
2024-02-01T11:18:24.090Z,167.28
2024-02-01T11:19:24.084Z,174.55
2024-02-01T11:20:23.824Z,185.26
2024-02-01T11:21:24.304Z,189.27
2024-02-01T11:22:24.289Z,194.66
2024-02-01T11:23:23.826Z,195.72
2024-02-01T11:24:23.826Z,196.69
2024-02-01T11:25:23.840Z,193.83
2024-02-01T11:26:24.280Z,191.38
2024-02-01T11:27:23.986Z,187.41
2024-02-01T11:28:23.848Z,185.66
2024-02-01T11:29:23.841Z,181.81
2024-02-01T11:30:23.870Z,180.04
2024-02-01T11:31:30.572Z,180.10
2024-02-01T11:32:24.924Z,180.12
2024-02-01T11:33:24.020Z,180.27
2024-02-01T11:34:24.177Z,179.71
2024-02-01T11:35:24.180Z,178.95
2024-02-01T11:36:24.180Z,180.11
2024-02-01T11:37:27.562Z,174.17
2024-02-01T11:38:25.188Z,174.18
2024-02-01T11:39:24.195Z,174.01
2024-02-01T11:40:24.173Z,172.30
2024-02-01T11:41:24.257Z,170.21
2024-02-01T11:42:31.426Z,170.73
2024-02-01T11:43:25.188Z,170.26
2024-02-01T11:44:24.193Z,171.57
2024-02-01T11:45:24.277Z,164.43
2024-02-01T11:46:24.184Z,163.79
2024-02-01T11:47:24.334Z,161.71
2024-02-01T11:48:24.292Z,160.28
2024-02-01T11:49:26.166Z,159.67
2024-02-01T11:50:24.186Z,159.69
2024-02-01T11:51:24.228Z,155.20
2024-02-01T11:52:24.196Z,157.18
2024-02-01T11:53:24.200Z,157.92
2024-02-01T11:54:24.225Z,158.84
2024-02-01T11:55:26.402Z,161.00
2024-02-01T11:56:24.214Z,160.64
2024-02-01T11:57:24.248Z,161.20
2024-02-01T11:58:24.211Z,161.77
2024-02-01T11:59:24.215Z,161.78
2024-02-01T12:00:33.130Z,162.20
2024-02-01T12:01:27.245Z,161.14
2024-02-01T12:02:24.224Z,161.11
2024-02-01T12:03:24.217Z,161.38
2024-02-01T12:04:24.256Z,161.96
2024-02-01T12:05:24.208Z,161.14
2024-02-01T12:06:24.629Z,159.51
2024-02-01T12:07:24.478Z,158.04
2024-02-01T12:08:24.297Z,159.68
2024-02-01T12:09:24.260Z,156.29
2024-02-01T12:10:24.218Z,156.61
2024-02-01T12:11:24.263Z,155.68
2024-02-01T12:12:24.504Z,153.14
2024-02-01T12:13:24.226Z,153.64
2024-02-01T12:14:24.246Z,154.00
2024-02-01T12:15:24.267Z,156.19
2024-02-01T12:16:24.245Z,156.48
2024-02-01T12:17:24.304Z,159.95
2024-02-01T12:18:24.419Z,161.50
2024-02-01T12:19:24.434Z,160.90
2024-02-01T12:20:24.436Z,159.54
2024-02-01T12:21:24.514Z,154.76
2024-02-01T12:22:24.590Z,156.28
2024-02-01T12:23:24.641Z,153.29
2024-02-01T12:24:24.714Z,151.43
2024-02-01T12:25:24.796Z,152.48
2024-02-01T12:26:25.597Z,147.25
2024-02-01T12:27:24.942Z,149.51
2024-02-01T12:28:24.944Z,147.98
2024-02-01T12:29:24.974Z,149.36
2024-02-01T12:30:25.071Z,142.39
2024-02-01T12:31:25.067Z,145.27
2024-02-01T12:32:25.081Z,141.66
2024-02-01T12:33:25.220Z,141.20
2024-02-01T12:34:25.294Z,138.89
2024-02-01T12:35:25.217Z,139.52
2024-02-01T12:36:25.319Z,137.66
2024-02-01T12:37:25.304Z,135.56
2024-02-01T12:38:25.344Z,133.51
2024-02-01T12:39:25.395Z,133.85
2024-02-01T12:40:25.411Z,132.94
2024-02-01T12:41:25.403Z,131.77
2024-02-01T12:42:25.508Z,132.12